West Ossipee, New Hampshire
Current Conditions -  °F | °C
As of 5:54 AM on Monday 20 Oct 2014 (Local Time) from KIZG Reporting Station
Clear Clear  
Wind Chill:   Ceiling: Unl
Heat Index:   Visibility: 10mi
Dew Point: -6°   Wind: 5mph
Humidity: 51%   Direction: NA
Pressure: 29.93"   Gusts: NA
Location:  43.82°N, 71.21°W
Report Text: KIZG 200954Z AUTO VRB04KT 10SM CLR 03/M06 A2993 RMK AO2 SLP138 T00331061
Loading
Personal Weather Stations






























Interactive Weather Map
Tropical Storm Tracking
New forecast layout! Learn more

10-Day Weather Forecast

Advertisements
Track Severe Weather on mobile